createdAt,value
2017-10-01T04:00:12.657Z,2.73
2017-10-01T04:02:40.218Z,2.73
2017-10-01T04:05:07.785Z,3.10
2017-10-01T04:07:35.321Z,3.00
2017-10-01T04:10:02.912Z,2.67
2017-10-01T04:12:31.244Z,3.57
2017-10-01T04:14:58.756Z,2.27
2017-10-01T04:17:26.293Z,3.80
2017-10-01T04:19:53.867Z,3.37
2017-10-01T04:22:22.148Z,3.13
2017-10-01T04:24:50.471Z,3.67
2017-10-01T04:27:18.054Z,3.63
2017-10-01T04:29:45.649Z,3.63
2017-10-01T04:32:13.190Z,3.10
2017-10-01T04:34:41.545Z,3.20
2017-10-01T04:37:09.864Z,2.60
2017-10-01T04:39:37.383Z,3.27
2017-10-01T04:42:04.952Z,2.60
2017-10-01T04:44:32.487Z,3.10
2017-10-01T04:47:00.014Z,3.00
2017-10-01T04:49:27.584Z,2.60
2017-10-01T04:51:55.116Z,2.20
2017-10-01T04:54:22.687Z,3.50
2017-10-01T04:56:50.204Z,2.80
2017-10-01T04:59:18.500Z,2.67
2017-10-01T05:01:46.066Z,2.97
2017-10-01T05:04:13.630Z,2.93
2017-10-01T05:06:41.148Z,3.00
2017-10-01T05:09:09.450Z,2.67
2017-10-01T05:11:37.022Z,2.60
2017-10-01T05:14:04.600Z,2.87
2017-10-01T05:16:32.128Z,2.90
2017-10-01T05:18:59.692Z,3.70
2017-10-01T05:21:27.224Z,2.60
2017-10-01T05:23:54.839Z,3.00
2017-10-01T05:26:22.381Z,2.73
2017-10-01T05:28:49.903Z,3.17
2017-10-01T05:31:18.229Z,2.50
2017-10-01T05:33:45.781Z,2.80
2017-10-01T05:36:13.308Z,3.10
2017-10-01T05:38:40.880Z,3.40
2017-10-01T05:41:08.400Z,3.00
2017-10-01T05:43:36.686Z,3.07
2017-10-01T05:46:05.008Z,3.10
2017-10-01T05:48:32.537Z,2.50
2017-10-01T05:51:00.102Z,3.80
2017-10-01T05:53:27.674Z,2.50
2017-10-01T05:55:55.205Z,3.07
2017-10-01T05:58:22.768Z,2.80
2017-10-01T06:00:50.312Z,3.17
2017-10-01T06:03:17.872Z,3.37
2017-10-01T06:05:45.404Z,3.00
2017-10-01T06:08:12.924Z,2.87
2017-10-01T06:10:40.473Z,3.70
2017-10-01T06:13:07.991Z,3.60
2017-10-01T06:15:36.321Z,3.43
2017-10-01T06:18:03.831Z,4.13
2017-10-01T06:20:31.397Z,4.23
2017-10-01T06:22:58.924Z,3.33
2017-10-01T06:25:26.445Z,3.27
2017-10-01T06:27:54.004Z,3.90
2017-10-01T06:30:21.532Z,4.40
2017-10-01T06:32:49.080Z,3.57
2017-10-01T06:35:17.367Z,3.47
2017-10-01T06:37:44.931Z,2.83
2017-10-01T06:40:12.461Z,3.20
2017-10-01T06:42:40.777Z,3.20
2017-10-01T06:45:08.336Z,3.97
2017-10-01T06:47:35.918Z,3.20
2017-10-01T06:50:03.442Z,3.20
2017-10-01T06:52:30.969Z,2.80
2017-10-01T06:54:59.293Z,3.27
2017-10-01T06:57:26.808Z,3.60
2017-10-01T06:59:55.135Z,3.20
2017-10-01T07:02:22.683Z,4.10
2017-10-01T07:04:50.237Z,3.77
2017-10-01T07:07:17.788Z,4.07
2017-10-01T07:09:45.295Z,3.90
2017-10-01T07:12:12.815Z,3.80
2017-10-01T07:14:40.356Z,4.93
2017-10-01T07:17:07.908Z,5.30
2017-10-01T07:19:35.498Z,3.87
2017-10-01T07:22:03.020Z,5.93
2017-10-01T07:24:30.536Z,2.90
2017-10-01T07:26:58.101Z,3.30
2017-10-01T07:29:25.617Z,4.73
2017-10-01T07:31:53.144Z,4.13
2017-10-01T07:34:20.696Z,3.43
2017-10-01T07:36:48.228Z,7.00
2017-10-01T07:39:15.785Z,3.53
2017-10-01T07:41:43.317Z,5.10
2017-10-01T07:44:10.880Z,4.70
2017-10-01T07:46:38.411Z,4.80
2017-10-01T07:49:06.000Z,11.00
2017-10-01T07:51:33.536Z,4.97
2017-10-01T07:54:01.063Z,6.20
2017-10-01T07:56:28.621Z,4.90
2017-10-01T07:58:56.143Z,5.83
2017-10-01T08:01:23.707Z,8.93
2017-10-01T08:03:51.277Z,6.57
2017-10-01T08:06:18.861Z,6.27
2017-10-01T08:08:46.406Z,6.93
2017-10-01T08:11:13.936Z,7.30
2017-10-01T08:13:41.499Z,7.70
2017-10-01T08:16:09.053Z,8.40
2017-10-01T08:18:37.363Z,7.90
2017-10-01T08:21:04.980Z,8.83
2017-10-01T08:23:32.508Z,9.00
2017-10-01T08:26:00.120Z,9.30
2017-10-01T08:28:28.434Z,9.30
2017-10-01T08:30:55.960Z,10.03
2017-10-01T08:33:24.279Z,9.10
2017-10-01T08:35:51.834Z,9.70
2017-10-01T08:38:19.358Z,9.60
2017-10-01T08:40:46.887Z,9.73
2017-10-01T08:43:14.452Z,9.67
2017-10-01T08:45:42.021Z,10.10
2017-10-01T08:48:09.963Z,9.83
2017-10-01T08:50:37.516Z,8.60
2017-10-01T08:53:05.061Z,10.57
2017-10-01T08:55:32.629Z,10.20
2017-10-01T08:58:00.155Z,13.20
2017-10-01T09:00:27.716Z,10.47
2017-10-01T09:02:55.237Z,10.90
2017-10-01T09:05:23.560Z,11.20
2017-10-01T09:07:51.077Z,10.10
2017-10-01T09:10:18.593Z,11.70
2017-10-01T09:12:46.187Z,11.63
2017-10-01T09:15:14.491Z,12.37
2017-10-01T09:17:42.050Z,11.67
2017-10-01T09:20:09.603Z,10.30
2017-10-01T09:22:37.132Z,11.73
2017-10-01T09:25:05.427Z,10.80
2017-10-01T09:27:32.983Z,10.87
2017-10-01T09:30:00.551Z,11.00
2017-10-01T09:32:28.120Z,11.37
2017-10-01T09:34:55.640Z,15.37
2017-10-01T09:37:23.935Z,11.03
2017-10-01T09:39:51.485Z,11.37
2017-10-01T09:42:19.047Z,11.23
2017-10-01T09:44:46.590Z,12.13
2017-10-01T09:47:14.103Z,11.83
2017-10-01T09:49:41.663Z,11.90
2017-10-01T09:52:09.179Z,11.63
2017-10-01T09:54:36.741Z,10.73
2017-10-01T09:57:04.264Z,10.43
2017-10-01T09:59:31.787Z,11.07
2017-10-01T10:01:59.336Z,10.33
2017-10-01T10:04:26.857Z,10.17
2017-10-01T10:06:55.189Z,10.17
2017-10-01T10:09:22.738Z,10.27
2017-10-01T10:11:50.279Z,8.63
2017-10-01T10:14:17.795Z,10.30
2017-10-01T10:16:45.314Z,10.43
2017-10-01T10:19:12.851Z,9.47
2017-10-01T10:21:40.369Z,10.63
2017-10-01T10:24:08.687Z,13.10
2017-10-01T10:26:36.202Z,9.53
2017-10-01T10:29:04.511Z,9.90
2017-10-01T10:31:32.041Z,9.37
2017-10-01T10:34:00.356Z,10.30
2017-10-01T10:36:27.867Z,9.30
2017-10-01T10:38:56.195Z,10.93
2017-10-01T10:41:23.715Z,10.43
2017-10-01T10:43:51.245Z,10.80
2017-10-01T10:46:18.799Z,9.30
2017-10-01T10:48:46.367Z,10.03
2017-10-01T10:51:14.656Z,10.43
2017-10-01T10:53:42.936Z,9.70
2017-10-01T10:56:10.478Z,9.17
2017-10-01T10:58:38.766Z,9.07
2017-10-01T11:01:07.073Z,7.53
2017-10-01T11:03:34.621Z,8.03
2017-10-01T11:06:02.143Z,7.30
2017-10-01T11:08:29.709Z,7.50
2017-10-01T11:10:57.992Z,8.03
2017-10-01T11:13:26.288Z,9.30
2017-10-01T11:15:53.828Z,9.30
2017-10-01T11:18:22.166Z,8.80
2017-10-01T11:20:49.673Z,9.37
2017-10-01T11:23:17.192Z,12.10
2017-10-01T11:25:44.748Z,9.50
2017-10-01T11:28:12.284Z,8.20
2017-10-01T11:30:39.805Z,7.70
2017-10-01T11:33:07.391Z,9.50
2017-10-01T11:35:34.903Z,7.90
2017-10-01T11:38:03.220Z,6.07
2017-10-01T11:40:30.746Z,7.07
2017-10-01T11:42:58.296Z,7.10
2017-10-01T11:45:25.884Z,9.30
2017-10-01T11:47:53.396Z,8.40
2017-10-01T11:50:21.726Z,7.90
2017-10-01T11:52:49.246Z,7.73
2017-10-01T11:55:17.520Z,9.00
2017-10-01T11:57:45.076Z,9.83
2017-10-01T12:00:13.353Z,9.33
2017-10-01T12:02:41.633Z,8.23
2017-10-01T12:05:09.227Z,7.53
2017-10-01T12:07:36.805Z,8.60
2017-10-01T12:10:04.360Z,9.10
2017-10-01T12:12:31.876Z,7.10
2017-10-01T12:14:59.389Z,8.17
2017-10-01T12:17:26.941Z,7.07
2017-10-01T12:19:54.504Z,5.90
2017-10-01T12:22:22.018Z,6.97
2017-10-01T12:24:49.531Z,6.93
2017-10-01T12:27:17.853Z,8.37
2017-10-01T12:29:45.379Z,7.00
2017-10-01T12:32:13.699Z,7.93
2017-10-01T12:34:41.210Z,8.17
2017-10-01T12:37:09.524Z,8.63
2017-10-01T12:39:37.852Z,6.60
2017-10-01T12:42:06.175Z,7.83
2017-10-01T12:44:33.742Z,6.83
2017-10-01T12:47:01.261Z,6.80
2017-10-01T12:49:28.771Z,7.73
2017-10-01T12:51:56.311Z,8.40
2017-10-01T12:54:23.850Z,6.57
2017-10-01T12:56:51.365Z,6.60
2017-10-01T12:59:18.932Z,7.97
2017-10-01T13:01:52.933Z,7.00
2017-10-01T13:04:20.492Z,6.70
2017-10-01T13:06:48.004Z,8.47
2017-10-01T13:09:15.532Z,9.20
2017-10-01T13:11:43.267Z,8.57
2017-10-01T13:14:10.816Z,8.17
2017-10-01T13:16:38.335Z,7.87
2017-10-01T13:19:05.861Z,8.57
2017-10-01T13:21:34.171Z,7.40
2017-10-01T13:24:01.689Z,7.77
2017-10-01T13:26:30.000Z,8.83
2017-10-01T13:28:57.519Z,6.80
2017-10-01T13:31:25.800Z,5.97
2017-10-01T13:33:54.107Z,7.87
2017-10-01T13:36:21.624Z,7.67
2017-10-01T13:38:49.944Z,7.30
2017-10-01T13:41:17.500Z,6.10
2017-10-01T13:43:45.033Z,6.43
2017-10-01T13:46:12.584Z,7.47
2017-10-01T13:48:40.856Z,6.73
2017-10-01T13:51:09.140Z,6.73
2017-10-01T13:53:36.695Z,7.80
2017-10-01T13:56:04.967Z,6.80
2017-10-01T13:58:33.248Z,6.40
2017-10-01T14:01:00.803Z,6.90
2017-10-01T14:03:29.087Z,7.80
2017-10-01T14:05:56.638Z,6.43
2017-10-01T14:08:24.919Z,6.57
2017-10-01T14:10:52.492Z,5.67
2017-10-01T14:13:20.003Z,6.13
2017-10-01T14:15:47.558Z,5.70
2017-10-01T14:18:15.112Z,5.73
2017-10-01T14:20:42.730Z,6.63
2017-10-01T14:23:10.329Z,5.57
2017-10-01T14:25:38.012Z,5.43
2017-10-01T14:28:06.296Z,5.20
2017-10-01T14:30:39.474Z,5.20
2017-10-01T14:33:07.760Z,5.00
2017-10-01T14:35:36.040Z,5.20
2017-10-01T14:38:03.591Z,6.63
2017-10-01T14:40:31.892Z,5.63
2017-10-01T14:42:59.431Z,5.57
2017-10-01T14:45:26.994Z,6.53
2017-10-01T14:47:54.528Z,7.13
2017-10-01T14:50:22.824Z,6.10
2017-10-01T14:52:50.382Z,6.10
2017-10-01T14:55:18.656Z,5.87
2017-10-01T14:57:46.207Z,7.13
2017-10-01T15:00:14.483Z,6.90
2017-10-01T15:02:42.839Z,7.30
2017-10-01T15:05:10.356Z,6.40
2017-10-01T15:07:37.930Z,7.27
2017-10-01T15:10:05.472Z,6.93
2017-10-01T15:12:32.980Z,7.13
2017-10-01T15:15:01.296Z,7.50
2017-10-01T15:17:28.844Z,7.30
2017-10-01T15:19:56.356Z,7.40
2017-10-01T15:22:23.928Z,7.80
2017-10-01T15:24:51.447Z,6.70
2017-10-01T15:27:18.984Z,7.03
2017-10-01T15:29:46.572Z,8.63
2017-10-01T15:32:14.121Z,6.90
2017-10-01T15:34:41.648Z,7.17
2017-10-01T15:37:09.195Z,8.70
2017-10-01T15:39:36.769Z,8.23
2017-10-01T15:42:04.292Z,7.20
2017-10-01T15:44:31.823Z,7.50
2017-10-01T15:46:59.399Z,7.50
2017-10-01T15:49:27.018Z,7.60
2017-10-01T15:51:54.539Z,7.87
2017-10-01T15:54:22.091Z,8.00
2017-10-01T15:56:50.372Z,8.60
2017-10-01T15:59:18.687Z,8.53
2017-10-01T16:01:46.201Z,7.60
2017-10-01T16:04:14.475Z,7.63
2017-10-01T16:06:42.792Z,8.23
2017-10-01T16:09:10.343Z,7.57
2017-10-01T16:11:37.888Z,7.57
2017-10-01T16:14:05.543Z,7.43
2017-10-01T16:16:33.091Z,6.73
2017-10-01T16:19:00.610Z,7.33
2017-10-01T16:21:28.158Z,7.10
2017-10-01T16:23:55.716Z,7.87
2017-10-01T16:26:23.240Z,8.93
2017-10-01T16:28:50.759Z,7.53
2017-10-01T16:31:19.140Z,6.90
2017-10-01T16:33:47.431Z,6.80
2017-10-01T16:36:14.960Z,6.60
2017-10-01T16:38:42.508Z,7.10
2017-10-01T16:41:10.060Z,7.10
2017-10-01T16:43:37.600Z,7.50
2017-10-01T16:46:05.112Z,7.67
2017-10-01T16:48:33.424Z,8.47
2017-10-01T16:51:00.939Z,6.73
2017-10-01T16:53:29.252Z,8.67
2017-10-01T16:55:56.820Z,7.63
2017-10-01T16:58:24.330Z,8.60
2017-10-01T17:03:14.973Z,7.53
2017-10-01T17:05:42.488Z,9.10
2017-10-01T17:08:10.810Z,8.63
2017-10-01T17:10:38.329Z,10.03
2017-10-01T17:13:06.661Z,10.77
2017-10-01T17:15:34.187Z,9.03
2017-10-01T17:18:01.773Z,9.97
2017-10-01T17:20:29.308Z,9.73
2017-10-01T17:22:56.824Z,10.17
2017-10-01T17:25:24.389Z,10.73
2017-10-01T17:27:52.695Z,12.20
2017-10-01T17:30:20.225Z,10.53
2017-10-01T17:32:48.560Z,12.40
2017-10-01T17:35:16.125Z,12.67
2017-10-01T17:37:43.695Z,13.33
2017-10-01T17:40:11.232Z,12.50
2017-10-01T17:42:38.797Z,12.57
2017-10-01T17:45:06.318Z,11.57
2017-10-01T17:47:33.880Z,12.80
2017-10-01T17:50:01.409Z,12.50
2017-10-01T17:52:29.692Z,12.67
2017-10-01T17:54:58.005Z,11.53
2017-10-01T17:57:25.516Z,10.90
2017-10-01T17:59:53.837Z,11.67
2017-10-01T18:02:21.368Z,11.70
2017-10-01T18:04:48.921Z,13.27
2017-10-01T18:07:16.483Z,11.90
2017-10-01T18:09:44.048Z,12.77
2017-10-01T18:12:11.617Z,12.87
2017-10-01T18:14:39.133Z,9.80
2017-10-01T18:17:07.485Z,11.33
2017-10-01T18:19:35.015Z,11.10
2017-10-01T18:22:02.540Z,10.67
2017-10-01T18:24:30.871Z,10.77
2017-10-01T18:26:58.383Z,11.10
2017-10-01T18:29:25.932Z,12.87
2017-10-01T18:31:54.217Z,10.80
2017-10-01T18:34:21.780Z,10.50
2017-10-01T18:36:49.315Z,11.10
2017-10-01T18:39:17.656Z,14.53
2017-10-01T18:41:45.182Z,11.63
2017-10-01T18:44:12.700Z,15.83
2017-10-01T18:46:41.031Z,13.77
2017-10-01T18:49:08.561Z,12.43
2017-10-01T18:51:36.119Z,13.60
2017-10-01T18:54:03.660Z,12.97
2017-10-01T18:56:31.993Z,13.63
2017-10-01T18:58:59.559Z,13.40
2017-10-01T19:01:27.110Z,13.77
2017-10-01T19:03:54.976Z,13.43
2017-10-01T19:06:22.508Z,14.50
2017-10-01T19:08:51.725Z,13.50
2017-10-01T19:11:19.291Z,13.73
2017-10-01T19:13:46.913Z,13.13
2017-10-01T19:16:14.492Z,13.03
2017-10-01T19:18:43.628Z,14.20
2017-10-01T19:21:13.176Z,14.10
2017-10-01T19:23:40.705Z,15.77
2017-10-01T19:26:08.290Z,14.43
2017-10-01T19:28:35.903Z,13.53
2017-10-01T19:31:03.419Z,14.27
2017-10-01T19:33:30.980Z,16.47
2017-10-01T19:35:58.596Z,14.47
2017-10-01T19:41:03.581Z,14.10
2017-10-01T19:43:31.318Z,15.37
2017-10-01T19:45:58.860Z,13.87
2017-10-01T19:48:27.179Z,14.50
2017-10-01T19:50:54.748Z,14.83
2017-10-01T19:53:22.298Z,14.00
2017-10-01T19:55:49.882Z,14.50
2017-10-01T19:58:17.453Z,13.17
2017-10-01T20:00:45.015Z,13.80
2017-10-01T20:03:12.581Z,13.73
2017-10-01T20:05:40.881Z,13.30
2017-10-01T20:08:08.518Z,15.13
2017-10-01T20:10:36.824Z,14.93
2017-10-01T20:13:04.391Z,15.37
2017-10-01T20:15:31.980Z,14.30
2017-10-01T20:17:59.532Z,13.77
2017-10-01T20:20:27.131Z,14.17
2017-10-01T20:22:55.432Z,15.53
2017-10-01T20:25:22.994Z,13.50
2017-10-01T20:27:50.528Z,15.00
2017-10-01T20:30:18.844Z,13.57
2017-10-01T20:32:47.236Z,14.10
2017-10-01T20:35:14.752Z,14.77
2017-10-01T20:37:42.276Z,15.57
2017-10-01T20:40:10.700Z,14.20
2017-10-01T20:42:38.281Z,14.43
2017-10-01T20:45:05.822Z,14.03
2017-10-01T20:47:33.396Z,13.67
2017-10-01T20:50:00.961Z,18.73
2017-10-01T20:52:28.475Z,12.70
2017-10-01T20:54:56.105Z,16.07
2017-10-01T20:57:24.320Z,15.10
2017-10-01T20:59:51.931Z,16.20
2017-10-01T21:02:19.589Z,15.17
2017-10-01T21:04:47.955Z,15.93
2017-10-01T21:07:15.469Z,15.63
2017-10-01T21:09:43.004Z,14.57
2017-10-01T21:12:10.652Z,16.03
2017-10-01T21:14:38.984Z,15.40
2017-10-01T21:17:06.508Z,17.20
2017-10-01T21:19:34.199Z,16.23
2017-10-01T21:22:02.271Z,16.30
2017-10-01T21:24:29.855Z,16.10
2017-10-01T21:26:57.385Z,16.93
2017-10-01T21:29:24.949Z,16.93
2017-10-01T21:31:53.296Z,14.43
2017-10-01T21:34:20.831Z,16.80
2017-10-01T21:36:49.128Z,14.47
2017-10-01T21:39:16.694Z,15.70
2017-10-01T21:41:44.215Z,14.87
2017-10-01T21:44:11.732Z,14.13
2017-10-01T21:46:39.291Z,15.23
2017-10-01T21:49:06.812Z,15.57
2017-10-01T21:51:35.141Z,18.00
2017-10-01T21:54:02.674Z,14.80
